sensor_id;sensor_type;location;lat;lon;timestamp;temperature;humidity
64685;DHT22;51109;47.414;18.954;2022-09-13T00:00:59;13.80;99.90
64685;DHT22;51109;47.414;18.954;2022-09-13T00:03:25;13.80;99.90
64685;DHT22;51109;47.414;18.954;2022-09-13T00:05:52;13.80;99.90
64685;DHT22;51109;47.414;18.954;2022-09-13T00:08:18;13.70;99.90
64685;DHT22;51109;47.414;18.954;2022-09-13T00:10:45;13.40;99.90
64685;DHT22;51109;47.414;18.954;2022-09-13T00:13:12;13.20;99.90
64685;DHT22;51109;47.414;18.954;2022-09-13T00:15:45;13.00;99.90
64685;DHT22;51109;47.414;18.954;2022-09-13T00:18:12;12.90;99.90
64685;DHT22;51109;47.414;18.954;2022-09-13T00:20:38;12.90;99.90
64685;DHT22;51109;47.414;18.954;2022-09-13T00:23:04;12.90;99.90
64685;DHT22;51109;47.414;18.954;2022-09-13T00:25:30;12.80;99.90
64685;DHT22;51109;47.414;18.954;2022-09-13T00:27:56;12.70;99.90
64685;DHT22;51109;47.414;18.954;2022-09-13T00:30:22;12.40;99.90
64685;DHT22;51109;47.414;18.954;2022-09-13T00:32:48;12.30;99.90
64685;DHT22;51109;47.414;18.954;2022-09-13T00:35:14;12.30;99.90
64685;DHT22;51109;47.414;18.954;2022-09-13T00:37:40;12.30;99.90
64685;DHT22;51109;47.414;18.954;2022-09-13T00:40:06;12.40;99.90
64685;DHT22;51109;47.414;18.954;2022-09-13T00:42:33;12.30;99.90
64685;DHT22;51109;47.414;18.954;2022-09-13T00:45:02;12.20;99.90
64685;DHT22;51109;47.414;18.954;2022-09-13T00:53:37;12.30;99.90
64685;DHT22;51109;47.414;18.954;2022-09-13T00:55:50;12.30;99.90
64685;DHT22;51109;47.414;18.954;2022-09-13T00:58:21;12.50;99.90
64685;DHT22;51109;47.414;18.954;2022-09-13T01:00:49;12.40;99.90
64685;DHT22;51109;47.414;18.954;2022-09-13T01:03:16;12.50;99.90
64685;DHT22;51109;47.414;18.954;2022-09-13T01:05:54;12.60;99.90
64685;DHT22;51109;47.414;18.954;2022-09-13T01:08:21;12.60;99.90
64685;DHT22;51109;47.414;18.954;2022-09-13T01:10:51;12.30;99.90
64685;DHT22;51109;47.414;18.954;2022-09-13T01:13:21;12.20;99.90
64685;DHT22;51109;47.414;18.954;2022-09-13T01:15:48;12.00;99.90
64685;DHT22;51109;47.414;18.954;2022-09-13T01:18:14;11.90;99.90
64685;DHT22;51109;47.414;18.954;2022-09-13T01:29:22;12.20;99.90
64685;DHT22;51109;47.414;18.954;2022-09-13T01:31:56;12.20;99.90
64685;DHT22;51109;47.414;18.954;2022-09-13T01:40:08;12.10;99.90
64685;DHT22;51109;47.414;18.954;2022-09-13T01:48:19;12.30;99.90
64685;DHT22;51109;47.414;18.954;2022-09-13T01:53:24;12.50;99.90
64685;DHT22;51109;47.414;18.954;2022-09-13T01:56:03;12.50;99.90
64685;DHT22;51109;47.414;18.954;2022-09-13T01:58:52;12.40;99.90
64685;DHT22;51109;47.414;18.954;2022-09-13T02:01:43;12.40;99.90
64685;DHT22;51109;47.414;18.954;2022-09-13T02:04:17;12.40;99.90
64685;DHT22;51109;47.414;18.954;2022-09-13T02:06:52;12.40;99.90
64685;DHT22;51109;47.414;18.954;2022-09-13T02:09:23;12.30;99.90
64685;DHT22;51109;47.414;18.954;2022-09-13T02:11:55;12.40;99.90
64685;DHT22;51109;47.414;18.954;2022-09-13T02:14:45;12.40;99.90
64685;DHT22;51109;47.414;18.954;2022-09-13T02:17:16;12.40;99.90
64685;DHT22;51109;47.414;18.954;2022-09-13T02:19:57;12.50;99.90
64685;DHT22;51109;47.414;18.954;2022-09-13T02:22:30;12.40;99.90
64685;DHT22;51109;47.414;18.954;2022-09-13T02:25:03;12.30;99.90
64685;DHT22;51109;47.414;18.954;2022-09-13T02:27:33;12.20;99.90
64685;DHT22;51109;47.414;18.954;2022-09-13T02:30:04;12.10;99.90
64685;DHT22;51109;47.414;18.954;2022-09-13T02:32:53;12.20;99.90
64685;DHT22;51109;47.414;18.954;2022-09-13T02:35:30;12.20;99.90
64685;DHT22;51109;47.414;18.954;2022-09-13T02:38:14;12.20;99.90
64685;DHT22;51109;47.414;18.954;2022-09-13T02:40:47;12.20;99.90
64685;DHT22;51109;47.414;18.954;2022-09-13T02:43:19;12.10;99.90
64685;DHT22;51109;47.414;18.954;2022-09-13T02:48:49;12.00;99.90
64685;DHT22;51109;47.414;18.954;2022-09-13T02:51:32;12.00;99.90
64685;DHT22;51109;47.414;18.954;2022-09-13T02:57:13;12.20;99.90
64685;DHT22;51109;47.414;18.954;2022-09-13T02:59:40;12.20;99.90
64685;DHT22;51109;47.414;18.954;2022-09-13T03:02:09;12.30;99.90
64685;DHT22;51109;47.414;18.954;2022-09-13T03:04:37;12.20;99.90
64685;DHT22;51109;47.414;18.954;2022-09-13T03:07:07;12.20;99.90
64685;DHT22;51109;47.414;18.954;2022-09-13T03:09:34;12.10;99.90
64685;DHT22;51109;47.414;18.954;2022-09-13T03:12:08;11.90;99.90
64685;DHT22;51109;47.414;18.954;2022-09-13T03:17:27;12.10;99.90
64685;DHT22;51109;47.414;18.954;2022-09-13T03:23:35;12.40;99.90
64685;DHT22;51109;47.414;18.954;2022-09-13T03:25:51;12.50;99.90
64685;DHT22;51109;47.414;18.954;2022-09-13T03:31:18;12.60;99.90
64685;DHT22;51109;47.414;18.954;2022-09-13T03:33:56;12.50;99.90
64685;DHT22;51109;47.414;18.954;2022-09-13T03:36:34;12.60;99.90
64685;DHT22;51109;47.414;18.954;2022-09-13T03:39:24;12.50;99.90
64685;DHT22;51109;47.414;18.954;2022-09-13T03:42:01;12.40;99.90
64685;DHT22;51109;47.414;18.954;2022-09-13T03:44:30;12.30;99.90
64685;DHT22;51109;47.414;18.954;2022-09-13T03:46:58;12.40;99.90
64685;DHT22;51109;47.414;18.954;2022-09-13T03:49:26;12.40;99.90
64685;DHT22;51109;47.414;18.954;2022-09-13T03:51:53;12.40;99.90
64685;DHT22;51109;47.414;18.954;2022-09-13T03:54:28;12.30;99.90
64685;DHT22;51109;47.414;18.954;2022-09-13T03:57:07;12.30;99.90
64685;DHT22;51109;47.414;18.954;2022-09-13T03:59:34;12.30;99.90
64685;DHT22;51109;47.414;18.954;2022-09-13T04:02:02;12.30;99.90
64685;DHT22;51109;47.414;18.954;2022-09-13T04:04:28;12.20;99.90
64685;DHT22;51109;47.414;18.954;2022-09-13T04:06:54;12.20;99.90
64685;DHT22;51109;47.414;18.954;2022-09-13T04:09:22;12.10;99.90
64685;DHT22;51109;47.414;18.954;2022-09-13T04:11:48;11.90;99.90
64685;DHT22;51109;47.414;18.954;2022-09-13T04:14:13;11.70;99.90
64685;DHT22;51109;47.414;18.954;2022-09-13T04:16:40;11.70;99.90
64685;DHT22;51109;47.414;18.954;2022-09-13T04:19:06;11.80;99.90
64685;DHT22;51109;47.414;18.954;2022-09-13T04:21:32;11.90;99.90
64685;DHT22;51109;47.414;18.954;2022-09-13T04:23:59;12.00;99.90
64685;DHT22;51109;47.414;18.954;2022-09-13T04:26:25;12.20;99.90
64685;DHT22;51109;47.414;18.954;2022-09-13T04:28:52;12.20;99.90
64685;DHT22;51109;47.414;18.954;2022-09-13T04:31:18;12.30;99.90
64685;DHT22;51109;47.414;18.954;2022-09-13T04:33:43;12.30;99.90
64685;DHT22;51109;47.414;18.954;2022-09-13T04:36:10;12.40;99.90
64685;DHT22;51109;47.414;18.954;2022-09-13T04:38:36;12.40;99.90
64685;DHT22;51109;47.414;18.954;2022-09-13T04:41:02;12.30;99.90
64685;DHT22;51109;47.414;18.954;2022-09-13T04:43:28;12.30;99.90
64685;DHT22;51109;47.414;18.954;2022-09-13T04:45:58;12.20;99.90
64685;DHT22;51109;47.414;18.954;2022-09-13T04:48:24;12.10;99.90
64685;DHT22;51109;47.414;18.954;2022-09-13T04:50:49;12.10;99.90
64685;DHT22;51109;47.414;18.954;2022-09-13T04:53:15;12.10;99.90
64685;DHT22;51109;47.414;18.954;2022-09-13T04:55:42;12.10;99.90
64685;DHT22;51109;47.414;18.954;2022-09-13T04:58:08;12.20;99.90
64685;DHT22;51109;47.414;18.954;2022-09-13T05:00:33;12.30;99.90
64685;DHT22;51109;47.414;18.954;2022-09-13T05:03:00;12.40;99.90
64685;DHT22;51109;47.414;18.954;2022-09-13T05:05:26;12.60;99.90
64685;DHT22;51109;47.414;18.954;2022-09-13T05:07:54;12.80;99.90
64685;DHT22;51109;47.414;18.954;2022-09-13T05:10:19;13.00;99.90
64685;DHT22;51109;47.414;18.954;2022-09-13T05:12:45;13.30;99.90
64685;DHT22;51109;47.414;18.954;2022-09-13T05:15:11;13.10;99.90
64685;DHT22;51109;47.414;18.954;2022-09-13T05:17:38;13.20;99.90
64685;DHT22;51109;47.414;18.954;2022-09-13T05:20:04;13.40;99.90
64685;DHT22;51109;47.414;18.954;2022-09-13T05:22:30;13.50;99.90
64685;DHT22;51109;47.414;18.954;2022-09-13T05:24:56;13.70;99.90
64685;DHT22;51109;47.414;18.954;2022-09-13T05:27:22;13.80;99.90
64685;DHT22;51109;47.414;18.954;2022-09-13T05:29:48;14.10;99.90
64685;DHT22;51109;47.414;18.954;2022-09-13T05:32:14;14.20;99.90
64685;DHT22;51109;47.414;18.954;2022-09-13T05:34:40;14.40;99.90
64685;DHT22;51109;47.414;18.954;2022-09-13T05:37:05;14.50;99.90
64685;DHT22;51109;47.414;18.954;2022-09-13T05:39:31;14.70;99.90
64685;DHT22;51109;47.414;18.954;2022-09-13T05:41:57;14.90;99.90
64685;DHT22;51109;47.414;18.954;2022-09-13T05:44:23;15.20;99.90
64685;DHT22;51109;47.414;18.954;2022-09-13T05:46:49;15.30;99.90
64685;DHT22;51109;47.414;18.954;2022-09-13T05:49:15;15.50;99.90
64685;DHT22;51109;47.414;18.954;2022-09-13T05:51:41;15.60;99.90
64685;DHT22;51109;47.414;18.954;2022-09-13T05:54:09;15.70;99.90
64685;DHT22;51109;47.414;18.954;2022-09-13T05:56:35;15.80;99.90
64685;DHT22;51109;47.414;18.954;2022-09-13T05:59:01;15.90;99.90
64685;DHT22;51109;47.414;18.954;2022-09-13T06:01:27;16.00;99.90
64685;DHT22;51109;47.414;18.954;2022-09-13T06:03:55;16.10;99.90
64685;DHT22;51109;47.414;18.954;2022-09-13T06:06:23;16.20;99.90
64685;DHT22;51109;47.414;18.954;2022-09-13T06:08:53;16.30;99.90
64685;DHT22;51109;47.414;18.954;2022-09-13T06:11:20;16.40;99.90
64685;DHT22;51109;47.414;18.954;2022-09-13T06:13:46;16.60;99.90
64685;DHT22;51109;47.414;18.954;2022-09-13T06:16:13;16.80;99.90
64685;DHT22;51109;47.414;18.954;2022-09-13T06:18:40;17.00;99.90
64685;DHT22;51109;47.414;18.954;2022-09-13T06:21:12;17.10;99.90
64685;DHT22;51109;47.414;18.954;2022-09-13T06:23:43;17.20;99.90
64685;DHT22;51109;47.414;18.954;2022-09-13T06:26:11;17.30;99.90
64685;DHT22;51109;47.414;18.954;2022-09-13T06:28:38;17.20;99.90
64685;DHT22;51109;47.414;18.954;2022-09-13T06:31:12;17.10;99.90
64685;DHT22;51109;47.414;18.954;2022-09-13T06:33:40;17.20;99.90
64685;DHT22;51109;47.414;18.954;2022-09-13T06:36:14;17.20;99.90
64685;DHT22;51109;47.414;18.954;2022-09-13T06:38:43;17.30;99.90
64685;DHT22;51109;47.414;18.954;2022-09-13T06:41:17;17.10;99.90
64685;DHT22;51109;47.414;18.954;2022-09-13T06:43:43;17.20;99.90
64685;DHT22;51109;47.414;18.954;2022-09-13T06:46:11;17.20;99.90
64685;DHT22;51109;47.414;18.954;2022-09-13T06:48:41;17.30;99.90
64685;DHT22;51109;47.414;18.954;2022-09-13T06:51:14;17.40;99.90
64685;DHT22;51109;47.414;18.954;2022-09-13T06:53:41;17.50;99.90
64685;DHT22;51109;47.414;18.954;2022-09-13T06:58:37;17.90;99.90
64685;DHT22;51109;47.414;18.954;2022-09-13T07:01:12;18.20;99.90
64685;DHT22;51109;47.414;18.954;2022-09-13T07:03:46;18.30;99.90
64685;DHT22;51109;47.414;18.954;2022-09-13T07:06:32;18.40;99.90
64685;DHT22;51109;47.414;18.954;2022-09-13T07:08:59;18.50;99.90
64685;DHT22;51109;47.414;18.954;2022-09-13T07:11:29;18.40;99.90
64685;DHT22;51109;47.414;18.954;2022-09-13T07:13:56;18.30;99.90
64685;DHT22;51109;47.414;18.954;2022-09-13T07:16:25;18.40;99.90
64685;DHT22;51109;47.414;18.954;2022-09-13T07:18:57;18.50;99.90
64685;DHT22;51109;47.414;18.954;2022-09-13T07:21:24;18.60;99.90
64685;DHT22;51109;47.414;18.954;2022-09-13T07:23:51;18.70;99.90
64685;DHT22;51109;47.414;18.954;2022-09-13T07:26:18;18.80;99.90
64685;DHT22;51109;47.414;18.954;2022-09-13T07:28:46;19.00;99.90
64685;DHT22;51109;47.414;18.954;2022-09-13T07:31:13;19.10;99.90
64685;DHT22;51109;47.414;18.954;2022-09-13T07:33:41;19.10;99.90
64685;DHT22;51109;47.414;18.954;2022-09-13T07:36:08;19.20;99.90
64685;DHT22;51109;47.414;18.954;2022-09-13T07:38:38;19.20;99.90
64685;DHT22;51109;47.414;18.954;2022-09-13T07:41:06;19.20;99.90
64685;DHT22;51109;47.414;18.954;2022-09-13T07:43:34;19.20;99.90
64685;DHT22;51109;47.414;18.954;2022-09-13T07:46:06;19.30;99.90
64685;DHT22;51109;47.414;18.954;2022-09-13T07:48:34;19.10;99.90
64685;DHT22;51109;47.414;18.954;2022-09-13T07:51:03;19.10;99.90
64685;DHT22;51109;47.414;18.954;2022-09-13T07:53:31;19.00;99.90
64685;DHT22;51109;47.414;18.954;2022-09-13T07:56:02;19.10;99.90
64685;DHT22;51109;47.414;18.954;2022-09-13T07:58:29;19.10;99.90
64685;DHT22;51109;47.414;18.954;2022-09-13T08:01:03;19.00;99.90
64685;DHT22;51109;47.414;18.954;2022-09-13T08:03:29;19.00;99.90
64685;DHT22;51109;47.414;18.954;2022-09-13T08:05:55;19.10;99.90
64685;DHT22;51109;47.414;18.954;2022-09-13T08:08:21;19.10;99.90
64685;DHT22;51109;47.414;18.954;2022-09-13T08:10:47;19.20;99.90
64685;DHT22;51109;47.414;18.954;2022-09-13T08:13:15;19.20;99.90
64685;DHT22;51109;47.414;18.954;2022-09-13T08:15:41;19.40;99.90
64685;DHT22;51109;47.414;18.954;2022-09-13T08:18:10;19.60;99.90
64685;DHT22;51109;47.414;18.954;2022-09-13T08:20:37;19.80;99.90
64685;DHT22;51109;47.414;18.954;2022-09-13T08:23:04;19.90;99.90
64685;DHT22;51109;47.414;18.954;2022-09-13T08:25:34;19.80;99.90
64685;DHT22;51109;47.414;18.954;2022-09-13T08:28:15;19.60;99.90
64685;DHT22;51109;47.414;18.954;2022-09-13T08:30:41;19.70;99.90
64685;DHT22;51109;47.414;18.954;2022-09-13T08:33:09;19.90;99.90
64685;DHT22;51109;47.414;18.954;2022-09-13T08:35:36;19.90;99.90
64685;DHT22;51109;47.414;18.954;2022-09-13T08:38:03;20.00;99.90
64685;DHT22;51109;47.414;18.954;2022-09-13T08:40:40;20.00;99.90
64685;DHT22;51109;47.414;18.954;2022-09-13T08:43:17;20.00;99.90
64685;DHT22;51109;47.414;18.954;2022-09-13T08:48:40;20.40;99.90
64685;DHT22;51109;47.414;18.954;2022-09-13T08:51:28;20.60;99.90
64685;DHT22;51109;47.414;18.954;2022-09-13T08:53:57;20.60;99.90
64685;DHT22;51109;47.414;18.954;2022-09-13T09:07:26;21.10;99.90
64685;DHT22;51109;47.414;18.954;2022-09-13T09:10:05;21.20;99.90
64685;DHT22;51109;47.414;18.954;2022-09-13T09:15:24;21.30;99.90
64685;DHT22;51109;47.414;18.954;2022-09-13T09:20:39;21.40;99.90
64685;DHT22;51109;47.414;18.954;2022-09-13T09:23:24;21.40;99.90
64685;DHT22;51109;47.414;18.954;2022-09-13T09:25:59;21.40;99.90
64685;DHT22;51109;47.414;18.954;2022-09-13T09:28:33;21.40;99.90
64685;DHT22;51109;47.414;18.954;2022-09-13T09:31:07;21.30;99.90
64685;DHT22;51109;47.414;18.954;2022-09-13T09:36:14;21.40;99.90
64685;DHT22;51109;47.414;18.954;2022-09-13T09:38:43;21.40;99.90
64685;DHT22;51109;47.414;18.954;2022-09-13T09:43:49;21.60;99.90
64685;DHT22;51109;47.414;18.954;2022-09-13T09:46:21;21.70;99.90
64685;DHT22;51109;47.414;18.954;2022-09-13T09:48:55;21.90;99.90
64685;DHT22;51109;47.414;18.954;2022-09-13T09:51:23;22.00;99.90
64685;DHT22;51109;47.414;18.954;2022-09-13T09:54:01;22.20;99.90
64685;DHT22;51109;47.414;18.954;2022-09-13T09:56:32;22.30;99.90
64685;DHT22;51109;47.414;18.954;2022-09-13T09:58:58;22.40;99.90
64685;DHT22;51109;47.414;18.954;2022-09-13T10:04:05;22.60;99.90
64685;DHT22;51109;47.414;18.954;2022-09-13T10:06:33;22.70;99.90
64685;DHT22;51109;47.414;18.954;2022-09-13T10:09:05;22.30;99.90
64685;DHT22;51109;47.414;18.954;2022-09-13T10:11:53;22.30;99.90
64685;DHT22;51109;47.414;18.954;2022-09-13T10:19:36;22.20;99.90
64685;DHT22;51109;47.414;18.954;2022-09-13T10:22:10;22.30;99.90
64685;DHT22;51109;47.414;18.954;2022-09-13T10:24:37;22.30;99.90
64685;DHT22;51109;47.414;18.954;2022-09-13T10:27:05;22.20;99.90
64685;DHT22;51109;47.414;18.954;2022-09-13T10:29:48;21.50;99.90
64685;DHT22;51109;47.414;18.954;2022-09-13T10:32:15;21.60;99.90
64685;DHT22;51109;47.414;18.954;2022-09-13T10:34:45;21.80;99.90
64685;DHT22;51109;47.414;18.954;2022-09-13T10:37:12;22.00;99.90
64685;DHT22;51109;47.414;18.954;2022-09-13T10:39:52;22.20;99.90
64685;DHT22;51109;47.414;18.954;2022-09-13T10:42:21;22.20;99.90
64685;DHT22;51109;47.414;18.954;2022-09-13T10:44:57;22.50;99.90
64685;DHT22;51109;47.414;18.954;2022-09-13T10:47:25;22.80;99.90
64685;DHT22;51109;47.414;18.954;2022-09-13T10:49:54;22.90;99.90
64685;DHT22;51109;47.414;18.954;2022-09-13T10:52:27;22.90;99.90
64685;DHT22;51109;47.414;18.954;2022-09-13T10:54:54;22.90;99.90
64685;DHT22;51109;47.414;18.954;2022-09-13T10:57:36;22.80;99.90
64685;DHT22;51109;47.414;18.954;2022-09-13T11:00:06;22.80;99.90
64685;DHT22;51109;47.414;18.954;2022-09-13T11:16:07;22.80;99.90
64685;DHT22;51109;47.414;18.954;2022-09-13T11:34:40;23.00;99.90
64685;DHT22;51109;47.414;18.954;2022-09-13T11:40:33;23.00;99.90
64685;DHT22;51109;47.414;18.954;2022-09-13T11:57:02;23.60;99.90
64685;DHT22;51109;47.414;18.954;2022-09-13T11:59:50;23.80;99.90
64685;DHT22;51109;47.414;18.954;2022-09-13T12:02:27;24.00;99.90
64685;DHT22;51109;47.414;18.954;2022-09-13T12:07:35;23.80;99.90
64685;DHT22;51109;47.414;18.954;2022-09-13T12:10:06;23.90;99.90
64685;DHT22;51109;47.414;18.954;2022-09-13T12:12:38;24.00;99.90
64685;DHT22;51109;47.414;18.954;2022-09-13T12:15:21;24.00;99.90
64685;DHT22;51109;47.414;18.954;2022-09-13T12:17:52;24.10;99.90
64685;DHT22;51109;47.414;18.954;2022-09-13T12:20:37;24.10;99.90
64685;DHT22;51109;47.414;18.954;2022-09-13T12:23:10;24.20;99.90
64685;DHT22;51109;47.414;18.954;2022-09-13T12:28:25;23.80;99.90
64685;DHT22;51109;47.414;18.954;2022-09-13T12:31:22;23.70;99.90
64685;DHT22;51109;47.414;18.954;2022-09-13T12:33:48;23.70;99.90
64685;DHT22;51109;47.414;18.954;2022-09-13T12:56:30;23.60;99.90
64685;DHT22;51109;47.414;18.954;2022-09-13T13:01:34;23.70;99.90
64685;DHT22;51109;47.414;18.954;2022-09-13T13:04:19;23.70;99.90
64685;DHT22;51109;47.414;18.954;2022-09-13T13:06:58;23.60;99.90
64685;DHT22;51109;47.414;18.954;2022-09-13T13:09:55;23.50;99.90
64685;DHT22;51109;47.414;18.954;2022-09-13T13:12:37;23.50;99.90
64685;DHT22;51109;47.414;18.954;2022-09-13T13:15:52;23.50;99.90
64685;DHT22;51109;47.414;18.954;2022-09-13T13:17:54;23.50;99.90
64685;DHT22;51109;47.414;18.954;2022-09-13T13:23:29;23.60;99.90
64685;DHT22;51109;47.414;18.954;2022-09-13T13:36:58;23.80;99.90
64685;DHT22;51109;47.414;18.954;2022-09-13T13:42:39;23.50;99.90
64685;DHT22;51109;47.414;18.954;2022-09-13T13:59:49;23.90;99.90
64685;DHT22;51109;47.414;18.954;2022-09-13T14:02:21;23.90;99.90
64685;DHT22;51109;47.414;18.954;2022-09-13T14:04:58;24.10;99.90
64685;DHT22;51109;47.414;18.954;2022-09-13T14:10:20;24.20;99.90
64685;DHT22;51109;47.414;18.954;2022-09-13T14:16:00;24.20;99.90
64685;DHT22;51109;47.414;18.954;2022-09-13T14:23:49;24.30;99.90
64685;DHT22;51109;47.414;18.954;2022-09-13T14:26:15;24.30;99.90
64685;DHT22;51109;47.414;18.954;2022-09-13T14:28:41;24.20;99.90
64685;DHT22;51109;47.414;18.954;2022-09-13T14:31:16;24.20;99.90
64685;DHT22;51109;47.414;18.954;2022-09-13T14:33:44;24.30;99.90
64685;DHT22;51109;47.414;18.954;2022-09-13T14:36:18;24.30;99.90
64685;DHT22;51109;47.414;18.954;2022-09-13T14:39:10;24.20;99.90
64685;DHT22;51109;47.414;18.954;2022-09-13T14:41:37;24.10;99.90
64685;DHT22;51109;47.414;18.954;2022-09-13T14:44:23;24.10;99.90
64685;DHT22;51109;47.414;18.954;2022-09-13T14:49:51;24.20;99.90
64685;DHT22;51109;47.414;18.954;2022-09-13T14:55:15;24.10;99.90
64685;DHT22;51109;47.414;18.954;2022-09-13T14:57:46;24.10;99.90
64685;DHT22;51109;47.414;18.954;2022-09-13T15:02:39;24.00;99.90
64685;DHT22;51109;47.414;18.954;2022-09-13T15:05:10;24.00;99.90
64685;DHT22;51109;47.414;18.954;2022-09-13T15:07:38;24.10;99.90
64685;DHT22;51109;47.414;18.954;2022-09-13T15:12:34;23.80;99.90
64685;DHT22;51109;47.414;18.954;2022-09-13T15:15:33;23.60;99.90
64685;DHT22;51109;47.414;18.954;2022-09-13T15:20:55;23.30;99.90
64685;DHT22;51109;47.414;18.954;2022-09-13T15:25:56;23.20;99.90
64685;DHT22;51109;47.414;18.954;2022-09-13T15:28:33;23.20;99.90
64685;DHT22;51109;47.414;18.954;2022-09-13T15:31:18;23.20;99.90
64685;DHT22;51109;47.414;18.954;2022-09-13T15:33:44;23.10;99.90
64685;DHT22;51109;47.414;18.954;2022-09-13T15:39:15;23.20;99.90
64685;DHT22;51109;47.414;18.954;2022-09-13T15:41:52;23.10;99.90
64685;DHT22;51109;47.414;18.954;2022-09-13T15:44:19;23.10;99.90
64685;DHT22;51109;47.414;18.954;2022-09-13T15:46:56;23.10;99.90
64685;DHT22;51109;47.414;18.954;2022-09-13T15:49:26;23.10;99.90
64685;DHT22;51109;47.414;18.954;2022-09-13T15:52:00;23.10;99.90
64685;DHT22;51109;47.414;18.954;2022-09-13T15:54:38;23.00;99.90
64685;DHT22;51109;47.414;18.954;2022-09-13T15:57:16;23.00;99.90
64685;DHT22;51109;47.414;18.954;2022-09-13T15:59:42;23.10;99.90
64685;DHT22;51109;47.414;18.954;2022-09-13T16:04:45;23.00;99.90
64685;DHT22;51109;47.414;18.954;2022-09-13T16:07:11;23.10;99.90
64685;DHT22;51109;47.414;18.954;2022-09-13T16:09:38;23.10;99.90
64685;DHT22;51109;47.414;18.954;2022-09-13T16:12:04;23.10;99.90
64685;DHT22;51109;47.414;18.954;2022-09-13T16:14:30;22.90;99.90
64685;DHT22;51109;47.414;18.954;2022-09-13T16:16:56;22.90;99.90
64685;DHT22;51109;47.414;18.954;2022-09-13T16:19:22;22.70;99.90
64685;DHT22;51109;47.414;18.954;2022-09-13T16:21:49;22.50;99.90
64685;DHT22;51109;47.414;18.954;2022-09-13T16:24:16;22.40;99.90
64685;DHT22;51109;47.414;18.954;2022-09-13T16:26:42;22.30;99.90
64685;DHT22;51109;47.414;18.954;2022-09-13T16:29:12;22.20;99.90
64685;DHT22;51109;47.414;18.954;2022-09-13T16:31:38;22.10;99.90
64685;DHT22;51109;47.414;18.954;2022-09-13T16:34:04;22.00;99.90
64685;DHT22;51109;47.414;18.954;2022-09-13T16:36:30;21.90;99.90
64685;DHT22;51109;47.414;18.954;2022-09-13T16:38:58;21.90;99.90
64685;DHT22;51109;47.414;18.954;2022-09-13T16:41:25;21.70;99.90
64685;DHT22;51109;47.414;18.954;2022-09-13T16:43:55;21.60;99.90
64685;DHT22;51109;47.414;18.954;2022-09-13T16:46:21;21.60;99.90
64685;DHT22;51109;47.414;18.954;2022-09-13T16:48:54;21.60;99.90
64685;DHT22;51109;47.414;18.954;2022-09-13T16:51:21;21.50;99.90
64685;DHT22;51109;47.414;18.954;2022-09-13T16:53:48;21.40;99.90
64685;DHT22;51109;47.414;18.954;2022-09-13T16:56:17;21.30;99.90
64685;DHT22;51109;47.414;18.954;2022-09-13T16:58:44;21.10;99.90
64685;DHT22;51109;47.414;18.954;2022-09-13T17:01:19;21.00;99.90
64685;DHT22;51109;47.414;18.954;2022-09-13T17:03:45;20.90;99.90
64685;DHT22;51109;47.414;18.954;2022-09-13T17:06:13;20.80;99.90
64685;DHT22;51109;47.414;18.954;2022-09-13T17:08:41;20.70;99.90
64685;DHT22;51109;47.414;18.954;2022-09-13T17:11:10;20.60;99.90
64685;DHT22;51109;47.414;18.954;2022-09-13T17:13:38;20.50;99.90
64685;DHT22;51109;47.414;18.954;2022-09-13T17:16:07;20.40;99.90
64685;DHT22;51109;47.414;18.954;2022-09-13T17:18:42;20.40;99.90
64685;DHT22;51109;47.414;18.954;2022-09-13T17:21:07;20.30;99.90
64685;DHT22;51109;47.414;18.954;2022-09-13T17:23:33;20.40;99.90
64685;DHT22;51109;47.414;18.954;2022-09-13T17:25:59;20.30;99.90
64685;DHT22;51109;47.414;18.954;2022-09-13T17:28:25;20.30;99.90
64685;DHT22;51109;47.414;18.954;2022-09-13T17:30:51;20.20;99.90
64685;DHT22;51109;47.414;18.954;2022-09-13T17:33:18;20.30;99.90
64685;DHT22;51109;47.414;18.954;2022-09-13T17:35:44;20.30;99.90
64685;DHT22;51109;47.414;18.954;2022-09-13T17:38:10;20.20;99.90
64685;DHT22;51109;47.414;18.954;2022-09-13T17:40:36;20.10;99.90
64685;DHT22;51109;47.414;18.954;2022-09-13T17:43:02;20.00;99.90
64685;DHT22;51109;47.414;18.954;2022-09-13T17:45:28;19.90;99.90
64685;DHT22;51109;47.414;18.954;2022-09-13T17:47:55;19.80;99.90
64685;DHT22;51109;47.414;18.954;2022-09-13T17:50:23;19.80;99.90
64685;DHT22;51109;47.414;18.954;2022-09-13T17:52:49;19.70;99.90
64685;DHT22;51109;47.414;18.954;2022-09-13T17:55:16;19.50;99.90
64685;DHT22;51109;47.414;18.954;2022-09-13T17:57:42;19.30;99.90
64685;DHT22;51109;47.414;18.954;2022-09-13T18:00:09;19.20;99.90
64685;DHT22;51109;47.414;18.954;2022-09-13T18:02:37;19.20;99.90
64685;DHT22;51109;47.414;18.954;2022-09-13T18:05:03;19.20;99.90
64685;DHT22;51109;47.414;18.954;2022-09-13T18:07:32;19.30;99.90
64685;DHT22;51109;47.414;18.954;2022-09-13T18:09:58;19.40;99.90
64685;DHT22;51109;47.414;18.954;2022-09-13T18:12:23;19.50;99.90
64685;DHT22;51109;47.414;18.954;2022-09-13T18:14:49;19.50;99.90
64685;DHT22;51109;47.414;18.954;2022-09-13T18:17:15;19.40;99.90
64685;DHT22;51109;47.414;18.954;2022-09-13T18:19:41;19.30;99.90
64685;DHT22;51109;47.414;18.954;2022-09-13T18:22:08;19.20;99.90
64685;DHT22;51109;47.414;18.954;2022-09-13T18:24:34;19.20;99.90
64685;DHT22;51109;47.414;18.954;2022-09-13T18:27:01;19.20;99.90
64685;DHT22;51109;47.414;18.954;2022-09-13T18:29:27;19.20;99.90
64685;DHT22;51109;47.414;18.954;2022-09-13T18:31:58;19.20;99.90
64685;DHT22;51109;47.414;18.954;2022-09-13T18:34:24;19.10;99.90
64685;DHT22;51109;47.414;18.954;2022-09-13T18:36:50;19.10;99.90
64685;DHT22;51109;47.414;18.954;2022-09-13T18:39:19;19.10;99.90
64685;DHT22;51109;47.414;18.954;2022-09-13T18:41:45;19.10;99.90
64685;DHT22;51109;47.414;18.954;2022-09-13T18:44:14;19.10;99.90
64685;DHT22;51109;47.414;18.954;2022-09-13T18:46:40;19.10;99.90
64685;DHT22;51109;47.414;18.954;2022-09-13T18:49:07;19.00;99.90
64685;DHT22;51109;47.414;18.954;2022-09-13T18:51:44;19.00;99.90
64685;DHT22;51109;47.414;18.954;2022-09-13T18:54:12;19.00;99.90
64685;DHT22;51109;47.414;18.954;2022-09-13T18:56:40;19.10;99.90
64685;DHT22;51109;47.414;18.954;2022-09-13T18:59:07;19.10;99.90
64685;DHT22;51109;47.414;18.954;2022-09-13T19:01:35;19.20;99.90
64685;DHT22;51109;47.414;18.954;2022-09-13T19:04:18;19.20;99.90
64685;DHT22;51109;47.414;18.954;2022-09-13T19:06:53;19.30;99.90
64685;DHT22;51109;47.414;18.954;2022-09-13T19:09:20;19.20;99.90
64685;DHT22;51109;47.414;18.954;2022-09-13T19:11:50;19.10;99.90